sensor_id;sensor_type;location;lat;lon;timestamp;temperature;humidity
46416;DHT22;32620;51.704;7.822;2024-03-08T00:00:54;2.60;1.00
46416;DHT22;32620;51.704;7.822;2024-03-08T00:03:20;2.60;1.00
46416;DHT22;32620;51.704;7.822;2024-03-08T00:05:45;2.60;1.00
46416;DHT22;32620;51.704;7.822;2024-03-08T00:08:11;2.60;1.00
46416;DHT22;32620;51.704;7.822;2024-03-08T00:10:36;2.70;1.00
46416;DHT22;32620;51.704;7.822;2024-03-08T00:13:04;2.60;1.00
46416;DHT22;32620;51.704;7.822;2024-03-08T00:15:29;2.70;1.00
46416;DHT22;32620;51.704;7.822;2024-03-08T00:17:57;2.60;1.00
46416;DHT22;32620;51.704;7.822;2024-03-08T00:20:23;2.70;1.00
46416;DHT22;32620;51.704;7.822;2024-03-08T00:22:48;2.60;1.00
46416;DHT22;32620;51.704;7.822;2024-03-08T00:25:14;2.50;1.00
46416;DHT22;32620;51.704;7.822;2024-03-08T00:27:40;2.50;1.00
46416;DHT22;32620;51.704;7.822;2024-03-08T00:30:06;2.50;1.00
46416;DHT22;32620;51.704;7.822;2024-03-08T00:32:33;2.50;1.00
46416;DHT22;32620;51.704;7.822;2024-03-08T00:34:59;2.50;1.00
46416;DHT22;32620;51.704;7.822;2024-03-08T00:37:24;2.50;1.00
46416;DHT22;32620;51.704;7.822;2024-03-08T00:39:50;2.50;1.00
46416;DHT22;32620;51.704;7.822;2024-03-08T00:42:17;2.60;1.00
46416;DHT22;32620;51.704;7.822;2024-03-08T00:44:43;2.20;1.00
46416;DHT22;32620;51.704;7.822;2024-03-08T00:47:08;2.30;1.00
46416;DHT22;32620;51.704;7.822;2024-03-08T00:49:35;2.30;1.00
46416;DHT22;32620;51.704;7.822;2024-03-08T00:52:02;2.30;1.00
46416;DHT22;32620;51.704;7.822;2024-03-08T00:54:27;2.30;1.00
46416;DHT22;32620;51.704;7.822;2024-03-08T00:56:53;2.30;1.00
46416;DHT22;32620;51.704;7.822;2024-03-08T00:59:18;2.30;1.00
46416;DHT22;32620;51.704;7.822;2024-03-08T01:01:44;2.30;1.00
46416;DHT22;32620;51.704;7.822;2024-03-08T01:04:10;2.40;1.00
46416;DHT22;32620;51.704;7.822;2024-03-08T01:06:36;2.40;1.00
46416;DHT22;32620;51.704;7.822;2024-03-08T01:09:02;2.30;1.00
46416;DHT22;32620;51.704;7.822;2024-03-08T01:11:28;2.30;1.00
46416;DHT22;32620;51.704;7.822;2024-03-08T01:13:54;2.30;1.00
46416;DHT22;32620;51.704;7.822;2024-03-08T01:16:19;2.30;1.00
46416;DHT22;32620;51.704;7.822;2024-03-08T01:18:46;2.20;1.00
46416;DHT22;32620;51.704;7.822;2024-03-08T01:21:12;2.20;1.00
46416;DHT22;32620;51.704;7.822;2024-03-08T01:23:38;2.30;1.00
46416;DHT22;32620;51.704;7.822;2024-03-08T01:26:03;2.20;1.00
46416;DHT22;32620;51.704;7.822;2024-03-08T01:28:30;2.20;1.00
46416;DHT22;32620;51.704;7.822;2024-03-08T01:30:56;2.10;1.00
46416;DHT22;32620;51.704;7.822;2024-03-08T01:33:23;2.10;1.00
46416;DHT22;32620;51.704;7.822;2024-03-08T01:35:49;2.10;1.00
46416;DHT22;32620;51.704;7.822;2024-03-08T01:38:14;2.10;1.00
46416;DHT22;32620;51.704;7.822;2024-03-08T01:40:41;2.10;1.00
46416;DHT22;32620;51.704;7.822;2024-03-08T01:43:27;2.00;1.00
46416;DHT22;32620;51.704;7.822;2024-03-08T01:45:55;2.00;1.00
46416;DHT22;32620;51.704;7.822;2024-03-08T01:48:21;2.00;1.00
46416;DHT22;32620;51.704;7.822;2024-03-08T01:50:49;1.90;1.00
46416;DHT22;32620;51.704;7.822;2024-03-08T01:53:17;2.00;1.00
46416;DHT22;32620;51.704;7.822;2024-03-08T01:55:44;2.00;1.00
46416;DHT22;32620;51.704;7.822;2024-03-08T01:58:11;2.00;1.00
46416;DHT22;32620;51.704;7.822;2024-03-08T02:00:38;1.90;1.00
46416;DHT22;32620;51.704;7.822;2024-03-08T02:03:05;1.90;1.00
46416;DHT22;32620;51.704;7.822;2024-03-08T02:05:31;1.90;1.00
46416;DHT22;32620;51.704;7.822;2024-03-08T02:07:57;1.90;1.00
46416;DHT22;32620;51.704;7.822;2024-03-08T02:10:23;1.80;1.00
46416;DHT22;32620;51.704;7.822;2024-03-08T02:12:48;1.90;1.00
46416;DHT22;32620;51.704;7.822;2024-03-08T02:15:14;1.90;1.00
46416;DHT22;32620;51.704;7.822;2024-03-08T02:17:40;1.90;1.00
46416;DHT22;32620;51.704;7.822;2024-03-08T02:20:07;1.90;1.00
46416;DHT22;32620;51.704;7.822;2024-03-08T02:22:34;1.80;1.00
46416;DHT22;32620;51.704;7.822;2024-03-08T02:25:00;1.70;1.00
46416;DHT22;32620;51.704;7.822;2024-03-08T02:27:27;1.70;1.00
46416;DHT22;32620;51.704;7.822;2024-03-08T02:29:55;1.70;1.00
46416;DHT22;32620;51.704;7.822;2024-03-08T02:32:22;1.70;1.00
46416;DHT22;32620;51.704;7.822;2024-03-08T02:34:48;1.70;1.00
46416;DHT22;32620;51.704;7.822;2024-03-08T02:37:13;1.60;1.00
46416;DHT22;32620;51.704;7.822;2024-03-08T02:39:39;1.70;1.00
46416;DHT22;32620;51.704;7.822;2024-03-08T02:42:04;1.70;1.00
46416;DHT22;32620;51.704;7.822;2024-03-08T02:44:30;1.70;1.00
46416;DHT22;32620;51.704;7.822;2024-03-08T02:46:55;1.70;1.00
46416;DHT22;32620;51.704;7.822;2024-03-08T02:49:21;1.60;1.00
46416;DHT22;32620;51.704;7.822;2024-03-08T02:51:47;1.70;1.00
46416;DHT22;32620;51.704;7.822;2024-03-08T02:54:12;1.70;1.00
46416;DHT22;32620;51.704;7.822;2024-03-08T02:56:38;1.70;1.00
46416;DHT22;32620;51.704;7.822;2024-03-08T02:59:03;1.60;1.00
46416;DHT22;32620;51.704;7.822;2024-03-08T03:01:29;1.70;1.00
46416;DHT22;32620;51.704;7.822;2024-03-08T03:03:55;1.70;1.00
46416;DHT22;32620;51.704;7.822;2024-03-08T03:06:20;1.60;1.00
46416;DHT22;32620;51.704;7.822;2024-03-08T03:08:46;1.70;1.00
46416;DHT22;32620;51.704;7.822;2024-03-08T03:11:12;1.70;1.00
46416;DHT22;32620;51.704;7.822;2024-03-08T03:13:39;1.70;1.00
46416;DHT22;32620;51.704;7.822;2024-03-08T03:16:05;1.70;1.00
46416;DHT22;32620;51.704;7.822;2024-03-08T03:18:30;1.70;1.00
46416;DHT22;32620;51.704;7.822;2024-03-08T03:20:58;1.60;1.00
46416;DHT22;32620;51.704;7.822;2024-03-08T03:23:24;1.70;1.00
46416;DHT22;32620;51.704;7.822;2024-03-08T03:25:51;1.70;1.00
46416;DHT22;32620;51.704;7.822;2024-03-08T03:28:17;1.70;1.00
46416;DHT22;32620;51.704;7.822;2024-03-08T03:30:45;1.70;1.00
46416;DHT22;32620;51.704;7.822;2024-03-08T03:33:11;1.70;1.00
46416;DHT22;32620;51.704;7.822;2024-03-08T03:35:38;1.80;1.00
46416;DHT22;32620;51.704;7.822;2024-03-08T03:38:03;1.60;1.00
46416;DHT22;32620;51.704;7.822;2024-03-08T03:40:33;1.60;1.00
46416;DHT22;32620;51.704;7.822;2024-03-08T03:42:59;1.60;1.00
46416;DHT22;32620;51.704;7.822;2024-03-08T03:45:25;1.60;1.00
46416;DHT22;32620;51.704;7.822;2024-03-08T03:47:50;1.60;1.00
46416;DHT22;32620;51.704;7.822;2024-03-08T03:50:18;1.60;1.00
46416;DHT22;32620;51.704;7.822;2024-03-08T03:52:45;1.60;1.00
46416;DHT22;32620;51.704;7.822;2024-03-08T03:55:10;1.50;1.00
46416;DHT22;32620;51.704;7.822;2024-03-08T03:57:37;1.50;1.00
46416;DHT22;32620;51.704;7.822;2024-03-08T04:00:03;1.60;1.00
46416;DHT22;32620;51.704;7.822;2024-03-08T04:02:30;1.50;1.00
46416;DHT22;32620;51.704;7.822;2024-03-08T04:04:55;1.50;1.00
46416;DHT22;32620;51.704;7.822;2024-03-08T04:07:21;1.40;1.00
46416;DHT22;32620;51.704;7.822;2024-03-08T04:09:47;1.40;1.00
46416;DHT22;32620;51.704;7.822;2024-03-08T04:12:12;1.40;1.00
46416;DHT22;32620;51.704;7.822;2024-03-08T04:14:41;1.30;1.00
46416;DHT22;32620;51.704;7.822;2024-03-08T04:17:07;1.30;1.00
46416;DHT22;32620;51.704;7.822;2024-03-08T04:19:34;1.50;1.00
46416;DHT22;32620;51.704;7.822;2024-03-08T04:22:00;1.40;1.00
46416;DHT22;32620;51.704;7.822;2024-03-08T04:24:26;1.40;1.00
46416;DHT22;32620;51.704;7.822;2024-03-08T04:26:52;1.50;1.00
46416;DHT22;32620;51.704;7.822;2024-03-08T04:29:18;1.50;1.00
46416;DHT22;32620;51.704;7.822;2024-03-08T04:31:44;1.50;1.00
46416;DHT22;32620;51.704;7.822;2024-03-08T04:34:10;1.50;1.00
46416;DHT22;32620;51.704;7.822;2024-03-08T04:36:36;1.50;1.00
46416;DHT22;32620;51.704;7.822;2024-03-08T04:39:01;1.40;1.00
46416;DHT22;32620;51.704;7.822;2024-03-08T04:41:27;1.40;1.00
46416;DHT22;32620;51.704;7.822;2024-03-08T04:43:53;1.40;1.00
46416;DHT22;32620;51.704;7.822;2024-03-08T04:46:18;1.30;1.00
46416;DHT22;32620;51.704;7.822;2024-03-08T04:48:44;1.30;1.00
46416;DHT22;32620;51.704;7.822;2024-03-08T04:51:10;1.20;1.00
46416;DHT22;32620;51.704;7.822;2024-03-08T04:53:35;1.30;1.00
46416;DHT22;32620;51.704;7.822;2024-03-08T04:56:01;1.40;1.00
46416;DHT22;32620;51.704;7.822;2024-03-08T04:58:33;1.40;1.00
46416;DHT22;32620;51.704;7.822;2024-03-08T05:01:01;1.40;1.00
46416;DHT22;32620;51.704;7.822;2024-03-08T05:03:27;1.40;1.00
46416;DHT22;32620;51.704;7.822;2024-03-08T05:05:52;1.30;1.00
46416;DHT22;32620;51.704;7.822;2024-03-08T05:08:18;1.30;1.00
46416;DHT22;32620;51.704;7.822;2024-03-08T05:10:45;1.40;1.00
46416;DHT22;32620;51.704;7.822;2024-03-08T05:13:10;1.40;1.00
46416;DHT22;32620;51.704;7.822;2024-03-08T05:15:36;1.40;1.00
46416;DHT22;32620;51.704;7.822;2024-03-08T05:18:02;1.40;1.00
46416;DHT22;32620;51.704;7.822;2024-03-08T05:20:27;1.30;1.00
46416;DHT22;32620;51.704;7.822;2024-03-08T05:22:53;1.30;1.00
46416;DHT22;32620;51.704;7.822;2024-03-08T05:25:18;1.30;1.00
46416;DHT22;32620;51.704;7.822;2024-03-08T05:27:44;1.20;1.00
46416;DHT22;32620;51.704;7.822;2024-03-08T05:30:10;1.20;1.00
46416;DHT22;32620;51.704;7.822;2024-03-08T05:32:41;1.20;1.00
46416;DHT22;32620;51.704;7.822;2024-03-08T05:35:11;1.30;1.00
46416;DHT22;32620;51.704;7.822;2024-03-08T05:37:38;1.20;1.00
46416;DHT22;32620;51.704;7.822;2024-03-08T05:40:05;1.20;1.00
46416;DHT22;32620;51.704;7.822;2024-03-08T05:42:34;1.20;1.00
46416;DHT22;32620;51.704;7.822;2024-03-08T05:45:00;1.20;1.00
46416;DHT22;32620;51.704;7.822;2024-03-08T05:47:26;1.20;1.00
46416;DHT22;32620;51.704;7.822;2024-03-08T05:49:52;1.20;1.00
46416;DHT22;32620;51.704;7.822;2024-03-08T05:52:19;1.20;1.00
46416;DHT22;32620;51.704;7.822;2024-03-08T05:54:44;1.20;1.00
46416;DHT22;32620;51.704;7.822;2024-03-08T05:57:11;1.20;1.00
46416;DHT22;32620;51.704;7.822;2024-03-08T05:59:36;1.20;1.00
46416;DHT22;32620;51.704;7.822;2024-03-08T06:02:02;1.10;1.00
46416;DHT22;32620;51.704;7.822;2024-03-08T06:04:28;1.10;1.00
46416;DHT22;32620;51.704;7.822;2024-03-08T06:06:54;1.20;1.00
46416;DHT22;32620;51.704;7.822;2024-03-08T06:09:22;1.20;1.00
46416;DHT22;32620;51.704;7.822;2024-03-08T06:11:49;1.30;1.00
46416;DHT22;32620;51.704;7.822;2024-03-08T06:14:14;1.30;1.00
46416;DHT22;32620;51.704;7.822;2024-03-08T06:16:44;1.30;1.00
46416;DHT22;32620;51.704;7.822;2024-03-08T06:19:10;1.40;1.00
46416;DHT22;32620;51.704;7.822;2024-03-08T06:21:35;1.50;1.00
46416;DHT22;32620;51.704;7.822;2024-03-08T06:24:01;1.60;1.00
46416;DHT22;32620;51.704;7.822;2024-03-08T06:26:27;1.70;1.00
46416;DHT22;32620;51.704;7.822;2024-03-08T06:28:54;1.90;1.00
46416;DHT22;32620;51.704;7.822;2024-03-08T06:31:20;2.20;1.00
46416;DHT22;32620;51.704;7.822;2024-03-08T06:33:45;2.30;1.00
46416;DHT22;32620;51.704;7.822;2024-03-08T06:36:11;2.40;1.00
46416;DHT22;32620;51.704;7.822;2024-03-08T06:38:38;2.50;1.00
46416;DHT22;32620;51.704;7.822;2024-03-08T06:41:08;2.70;1.00
46416;DHT22;32620;51.704;7.822;2024-03-08T06:43:34;2.90;99.90
46416;DHT22;32620;51.704;7.822;2024-03-08T06:46:00;3.20;99.90
46416;DHT22;32620;51.704;7.822;2024-03-08T06:48:25;3.70;99.90
46416;DHT22;32620;51.704;7.822;2024-03-08T06:50:51;4.20;27.50
46416;DHT22;32620;51.704;7.822;2024-03-08T06:53:16;4.40;99.90
46416;DHT22;32620;51.704;7.822;2024-03-08T06:55:44;4.80;1.00
46416;DHT22;32620;51.704;7.822;2024-03-08T06:58:10;5.10;99.90
46416;DHT22;32620;51.704;7.822;2024-03-08T07:00:36;5.40;99.90
46416;DHT22;32620;51.704;7.822;2024-03-08T07:03:02;5.80;1.00
46416;DHT22;32620;51.704;7.822;2024-03-08T07:05:28;5.90;99.90
46416;DHT22;32620;51.704;7.822;2024-03-08T07:07:54;6.00;99.90
46416;DHT22;32620;51.704;7.822;2024-03-08T07:10:21;6.10;99.90
46416;DHT22;32620;51.704;7.822;2024-03-08T07:12:49;5.90;1.00
46416;DHT22;32620;51.704;7.822;2024-03-08T07:15:14;5.60;1.00
46416;DHT22;32620;51.704;7.822;2024-03-08T07:17:40;6.00;99.90
46416;DHT22;32620;51.704;7.822;2024-03-08T07:20:07;6.60;99.90
46416;DHT22;32620;51.704;7.822;2024-03-08T07:22:33;6.30;99.90
46416;DHT22;32620;51.704;7.822;2024-03-08T07:24:58;6.30;1.00
46416;DHT22;32620;51.704;7.822;2024-03-08T07:27:44;6.30;1.00
46416;DHT22;32620;51.704;7.822;2024-03-08T07:30:11;6.50;1.00
46416;DHT22;32620;51.704;7.822;2024-03-08T07:32:37;5.90;51.40
46416;DHT22;32620;51.704;7.822;2024-03-08T07:35:03;6.50;1.00
46416;DHT22;32620;51.704;7.822;2024-03-08T07:37:30;6.60;99.90
46416;DHT22;32620;51.704;7.822;2024-03-08T07:39:56;7.50;99.90
46416;DHT22;32620;51.704;7.822;2024-03-08T07:42:23;8.00;87.30
46416;DHT22;32620;51.704;7.822;2024-03-08T07:44:49;8.00;99.90
46416;DHT22;32620;51.704;7.822;2024-03-08T07:47:15;7.90;1.00
46416;DHT22;32620;51.704;7.822;2024-03-08T07:49:42;7.90;99.90
46416;DHT22;32620;51.704;7.822;2024-03-08T07:52:09;8.10;99.90
46416;DHT22;32620;51.704;7.822;2024-03-08T07:54:35;8.10;99.90
46416;DHT22;32620;51.704;7.822;2024-03-08T07:57:00;8.50;99.90
46416;DHT22;32620;51.704;7.822;2024-03-08T07:59:28;8.30;99.90
46416;DHT22;32620;51.704;7.822;2024-03-08T08:01:55;8.10;99.90
46416;DHT22;32620;51.704;7.822;2024-03-08T08:04:20;9.20;1.00
46416;DHT22;32620;51.704;7.822;2024-03-08T08:06:50;8.60;1.00
46416;DHT22;32620;51.704;7.822;2024-03-08T08:09:16;8.20;99.90
46416;DHT22;32620;51.704;7.822;2024-03-08T08:11:47;8.30;99.90
46416;DHT22;32620;51.704;7.822;2024-03-08T08:14:13;8.10;99.90
46416;DHT22;32620;51.704;7.822;2024-03-08T08:16:39;7.80;99.90
46416;DHT22;32620;51.704;7.822;2024-03-08T08:19:08;8.60;99.90
46416;DHT22;32620;51.704;7.822;2024-03-08T08:21:34;8.50;98.10
46416;DHT22;32620;51.704;7.822;2024-03-08T08:24:02;8.50;38.90
46416;DHT22;32620;51.704;7.822;2024-03-08T08:26:28;8.70;31.60
46416;DHT22;32620;51.704;7.822;2024-03-08T08:28:54;9.00;1.00
46416;DHT22;32620;51.704;7.822;2024-03-08T08:31:20;9.20;1.00
46416;DHT22;32620;51.704;7.822;2024-03-08T08:33:45;9.20;1.00
46416;DHT22;32620;51.704;7.822;2024-03-08T08:36:11;9.10;1.00
46416;DHT22;32620;51.704;7.822;2024-03-08T08:38:36;9.50;99.90
46416;DHT22;32620;51.704;7.822;2024-03-08T08:41:02;9.70;99.90
46416;DHT22;32620;51.704;7.822;2024-03-08T08:43:27;9.30;1.00
46416;DHT22;32620;51.704;7.822;2024-03-08T08:45:53;9.50;1.00
46416;DHT22;32620;51.704;7.822;2024-03-08T08:48:20;9.60;99.90
46416;DHT22;32620;51.704;7.822;2024-03-08T08:50:46;8.80;1.00
46416;DHT22;32620;51.704;7.822;2024-03-08T08:53:12;8.20;99.90
46416;DHT22;32620;51.704;7.822;2024-03-08T08:55:40;8.30;99.90
46416;DHT22;32620;51.704;7.822;2024-03-08T08:58:06;8.30;99.90
46416;DHT22;32620;51.704;7.822;2024-03-08T09:00:33;8.30;1.00
46416;DHT22;32620;51.704;7.822;2024-03-08T09:03:00;9.40;1.00
46416;DHT22;32620;51.704;7.822;2024-03-08T09:05:25;9.50;99.90
46416;DHT22;32620;51.704;7.822;2024-03-08T09:07:51;9.60;1.00
46416;DHT22;32620;51.704;7.822;2024-03-08T09:10:18;9.50;99.90
46416;DHT22;32620;51.704;7.822;2024-03-08T09:12:44;9.80;99.90
46416;DHT22;32620;51.704;7.822;2024-03-08T09:15:10;9.50;99.90
46416;DHT22;32620;51.704;7.822;2024-03-08T09:17:37;10.00;99.90
46416;DHT22;32620;51.704;7.822;2024-03-08T09:20:06;10.00;99.90
46416;DHT22;32620;51.704;7.822;2024-03-08T09:22:32;10.00;99.90
46416;DHT22;32620;51.704;7.822;2024-03-08T09:24:57;9.90;99.90
46416;DHT22;32620;51.704;7.822;2024-03-08T09:27:23;10.20;99.90
46416;DHT22;32620;51.704;7.822;2024-03-08T09:29:49;9.90;99.90
46416;DHT22;32620;51.704;7.822;2024-03-08T09:32:15;9.70;99.90
46416;DHT22;32620;51.704;7.822;2024-03-08T09:34:40;10.20;99.90
46416;DHT22;32620;51.704;7.822;2024-03-08T09:37:06;10.20;99.90
46416;DHT22;32620;51.704;7.822;2024-03-08T09:39:34;10.10;99.90
46416;DHT22;32620;51.704;7.822;2024-03-08T09:42:00;10.50;99.90
46416;DHT22;32620;51.704;7.822;2024-03-08T09:46:54;11.40;99.90
46416;DHT22;32620;51.704;7.822;2024-03-08T09:49:20;11.60;1.00
46416;DHT22;32620;51.704;7.822;2024-03-08T09:51:46;11.20;5.90
46416;DHT22;32620;51.704;7.822;2024-03-08T09:54:12;10.50;93.30
46416;DHT22;32620;51.704;7.822;2024-03-08T09:56:39;10.00;99.90
46416;DHT22;32620;51.704;7.822;2024-03-08T09:59:07;10.00;99.90
46416;DHT22;32620;51.704;7.822;2024-03-08T10:01:52;10.10;99.90
46416;DHT22;32620;51.704;7.822;2024-03-08T10:04:18;10.20;99.90
46416;DHT22;32620;51.704;7.822;2024-03-08T10:06:43;9.80;99.90
46416;DHT22;32620;51.704;7.822;2024-03-08T10:09:12;10.50;99.90
46416;DHT22;32620;51.704;7.822;2024-03-08T10:11:39;11.10;62.10
46416;DHT22;32620;51.704;7.822;2024-03-08T10:14:05;10.40;99.90
46416;DHT22;32620;51.704;7.822;2024-03-08T10:16:31;11.00;99.90
46416;DHT22;32620;51.704;7.822;2024-03-08T10:18:57;10.40;99.90
46416;DHT22;32620;51.704;7.822;2024-03-08T10:21:22;10.50;99.90
46416;DHT22;32620;51.704;7.822;2024-03-08T10:23:48;10.60;99.90
46416;DHT22;32620;51.704;7.822;2024-03-08T10:26:16;10.60;99.90
46416;DHT22;32620;51.704;7.822;2024-03-08T10:28:45;11.30;99.90
46416;DHT22;32620;51.704;7.822;2024-03-08T10:31:13;11.30;59.00
46416;DHT22;32620;51.704;7.822;2024-03-08T10:33:40;10.70;63.70
46416;DHT22;32620;51.704;7.822;2024-03-08T10:36:07;10.80;99.90
46416;DHT22;32620;51.704;7.822;2024-03-08T10:38:36;10.90;99.90
46416;DHT22;32620;51.704;7.822;2024-03-08T10:41:03;11.30;99.90
46416;DHT22;32620;51.704;7.822;2024-03-08T10:43:35;10.60;80.80
46416;DHT22;32620;51.704;7.822;2024-03-08T10:46:20;10.40;99.90
46416;DHT22;32620;51.704;7.822;2024-03-08T10:48:49;10.20;99.90
46416;DHT22;32620;51.704;7.822;2024-03-08T10:51:15;10.30;99.90
46416;DHT22;32620;51.704;7.822;2024-03-08T10:53:41;11.20;99.90
46416;DHT22;32620;51.704;7.822;2024-03-08T10:56:08;11.00;99.90
46416;DHT22;32620;51.704;7.822;2024-03-08T10:58:36;10.60;99.90
46416;DHT22;32620;51.704;7.822;2024-03-08T11:01:03;11.10;99.90
46416;DHT22;32620;51.704;7.822;2024-03-08T11:03:44;11.10;94.20
46416;DHT22;32620;51.704;7.822;2024-03-08T11:06:19;11.40;99.90
46416;DHT22;32620;51.704;7.822;2024-03-08T11:08:48;11.20;88.80
46416;DHT22;32620;51.704;7.822;2024-03-08T11:11:32;11.10;99.90
46416;DHT22;32620;51.704;7.822;2024-03-08T11:13:58;11.10;99.90
46416;DHT22;32620;51.704;7.822;2024-03-08T11:19:23;10.30;99.90
46416;DHT22;32620;51.704;7.822;2024-03-08T11:21:58;11.20;99.90
46416;DHT22;32620;51.704;7.822;2024-03-08T11:24:24;11.00;99.90
46416;DHT22;32620;51.704;7.822;2024-03-08T11:26:56;11.10;99.90
46416;DHT22;32620;51.704;7.822;2024-03-08T11:34:49;10.40;99.90
46416;DHT22;32620;51.704;7.822;2024-03-08T11:37:17;9.60;1.00
46416;DHT22;32620;51.704;7.822;2024-03-08T11:39:52;9.60;1.00
46416;DHT22;32620;51.704;7.822;2024-03-08T11:42:18;9.80;40.80
46416;DHT22;32620;51.704;7.822;2024-03-08T11:44:46;9.80;64.80
46416;DHT22;32620;51.704;7.822;2024-03-08T11:47:13;9.80;1.00
46416;DHT22;32620;51.704;7.822;2024-03-08T11:49:40;10.00;1.00
46416;DHT22;32620;51.704;7.822;2024-03-08T11:52:11;9.80;1.00
46416;DHT22;32620;51.704;7.822;2024-03-08T11:54:39;9.70;49.70
46416;DHT22;32620;51.704;7.822;2024-03-08T11:57:04;9.50;19.20
46416;DHT22;32620;51.704;7.822;2024-03-08T11:59:31;9.60;82.40
46416;DHT22;32620;51.704;7.822;2024-03-08T12:01:59;9.70;1.90
46416;DHT22;32620;51.704;7.822;2024-03-08T12:04:25;9.40;99.90
46416;DHT22;32620;51.704;7.822;2024-03-08T12:06:50;9.50;89.40
46416;DHT22;32620;51.704;7.822;2024-03-08T12:09:16;9.50;1.00
46416;DHT22;32620;51.704;7.822;2024-03-08T12:11:41;9.60;19.90
46416;DHT22;32620;51.704;7.822;2024-03-08T12:14:08;9.40;99.90
46416;DHT22;32620;51.704;7.822;2024-03-08T12:16:36;9.40;6.70
46416;DHT22;32620;51.704;7.822;2024-03-08T12:19:02;9.40;99.90
46416;DHT22;32620;51.704;7.822;2024-03-08T12:21:31;9.60;99.90
46416;DHT22;32620;51.704;7.822;2024-03-08T12:24:04;9.60;76.00
46416;DHT22;32620;51.704;7.822;2024-03-08T12:26:30;9.90;1.00
46416;DHT22;32620;51.704;7.822;2024-03-08T12:29:22;10.10;1.00
46416;DHT22;32620;51.704;7.822;2024-03-08T12:31:51;9.90;1.00
46416;DHT22;32620;51.704;7.822;2024-03-08T12:34:18;9.90;1.00
46416;DHT22;32620;51.704;7.822;2024-03-08T12:36:45;9.90;1.00
46416;DHT22;32620;51.704;7.822;2024-03-08T12:39:13;10.10;1.00
46416;DHT22;32620;51.704;7.822;2024-03-08T12:41:41;10.10;1.00
46416;DHT22;32620;51.704;7.822;2024-03-08T12:44:07;10.20;99.90
46416;DHT22;32620;51.704;7.822;2024-03-08T12:46:37;10.10;99.90
46416;DHT22;32620;51.704;7.822;2024-03-08T12:49:07;9.90;99.90
46416;DHT22;32620;51.704;7.822;2024-03-08T12:51:33;9.80;99.90
46416;DHT22;32620;51.704;7.822;2024-03-08T12:53:58;9.80;99.90
46416;DHT22;32620;51.704;7.822;2024-03-08T12:56:32;9.70;1.00
46416;DHT22;32620;51.704;7.822;2024-03-08T12:58:59;9.70;99.90
46416;DHT22;32620;51.704;7.822;2024-03-08T13:01:26;9.60;99.90
46416;DHT22;32620;51.704;7.822;2024-03-08T13:03:52;9.60;99.90
46416;DHT22;32620;51.704;7.822;2024-03-08T13:06:19;9.80;99.90
46416;DHT22;32620;51.704;7.822;2024-03-08T13:08:47;10.00;99.90
46416;DHT22;32620;51.704;7.822;2024-03-08T13:11:13;10.00;99.90
46416;DHT22;32620;51.704;7.822;2024-03-08T13:13:40;9.80;99.90
46416;DHT22;32620;51.704;7.822;2024-03-08T13:16:06;9.80;1.00
46416;DHT22;32620;51.704;7.822;2024-03-08T13:18:34;9.60;99.90
46416;DHT22;32620;51.704;7.822;2024-03-08T13:21:00;9.80;99.90
46416;DHT22;32620;51.704;7.822;2024-03-08T13:23:32;9.90;1.00
46416;DHT22;32620;51.704;7.822;2024-03-08T13:25:58;10.00;99.90
46416;DHT22;32620;51.704;7.822;2024-03-08T13:28:25;9.70;99.90
46416;DHT22;32620;51.704;7.822;2024-03-08T13:30:55;9.60;1.00
46416;DHT22;32620;51.704;7.822;2024-03-08T13:33:23;9.80;99.90
46416;DHT22;32620;51.704;7.822;2024-03-08T13:35:49;9.80;99.90
46416;DHT22;32620;51.704;7.822;2024-03-08T13:38:16;9.80;99.90
46416;DHT22;32620;51.704;7.822;2024-03-08T13:40:43;9.80;1.00
46416;DHT22;32620;51.704;7.822;2024-03-08T13:43:09;10.00;1.00
46416;DHT22;32620;51.704;7.822;2024-03-08T13:45:35;10.00;99.90
46416;DHT22;32620;51.704;7.822;2024-03-08T13:48:04;9.80;1.00
46416;DHT22;32620;51.704;7.822;2024-03-08T13:50:30;9.90;99.90
46416;DHT22;32620;51.704;7.822;2024-03-08T13:52:56;9.90;1.00
46416;DHT22;32620;51.704;7.822;2024-03-08T13:55:22;10.00;31.30
46416;DHT22;32620;51.704;7.822;2024-03-08T13:57:48;10.10;99.90
46416;DHT22;32620;51.704;7.822;2024-03-08T14:00:14;9.80;1.00
46416;DHT22;32620;51.704;7.822;2024-03-08T14:02:40;10.00;1.00
46416;DHT22;32620;51.704;7.822;2024-03-08T14:05:07;9.90;1.00
46416;DHT22;32620;51.704;7.822;2024-03-08T14:07:35;9.80;1.00
46416;DHT22;32620;51.704;7.822;2024-03-08T14:10:01;9.80;1.00
46416;DHT22;32620;51.704;7.822;2024-03-08T14:12:26;10.00;1.00
46416;DHT22;32620;51.704;7.822;2024-03-08T14:14:53;9.80;52.40
46416;DHT22;32620;51.704;7.822;2024-03-08T14:17:18;9.80;56.40
46416;DHT22;32620;51.704;7.822;2024-03-08T14:19:44;9.80;48.10
46416;DHT22;32620;51.704;7.822;2024-03-08T14:22:10;9.90;99.90
46416;DHT22;32620;51.704;7.822;2024-03-08T14:24:40;9.90;1.00
46416;DHT22;32620;51.704;7.822;2024-03-08T14:27:05;9.90;99.90
46416;DHT22;32620;51.704;7.822;2024-03-08T14:29:33;9.80;99.90
46416;DHT22;32620;51.704;7.822;2024-03-08T14:31:59;9.70;99.90
46416;DHT22;32620;51.704;7.822;2024-03-08T14:34:26;9.70;99.90
46416;DHT22;32620;51.704;7.822;2024-03-08T14:36:53;9.70;99.90
46416;DHT22;32620;51.704;7.822;2024-03-08T14:39:19;9.60;99.90
46416;DHT22;32620;51.704;7.822;2024-03-08T14:41:47;9.70;99.90
46416;DHT22;32620;51.704;7.822;2024-03-08T14:44:13;9.70;1.00
46416;DHT22;32620;51.704;7.822;2024-03-08T14:46:40;9.60;99.90
46416;DHT22;32620;51.704;7.822;2024-03-08T14:49:05;9.70;1.00
46416;DHT22;32620;51.704;7.822;2024-03-08T14:51:31;9.70;99.90
46416;DHT22;32620;51.704;7.822;2024-03-08T14:53:58;9.70;99.90
46416;DHT22;32620;51.704;7.822;2024-03-08T14:56:24;9.60;99.90
46416;DHT22;32620;51.704;7.822;2024-03-08T14:58:52;9.70;99.90
46416;DHT22;32620;51.704;7.822;2024-03-08T15:01:18;9.70;99.90
46416;DHT22;32620;51.704;7.822;2024-03-08T15:03:49;9.70;99.90
46416;DHT22;32620;51.704;7.822;2024-03-08T15:06:15;9.50;99.90
46416;DHT22;32620;51.704;7.822;2024-03-08T15:08:45;9.50;99.90
46416;DHT22;32620;51.704;7.822;2024-03-08T15:11:11;9.50;97.40
46416;DHT22;32620;51.704;7.822;2024-03-08T15:13:37;9.50;99.90
46416;DHT22;32620;51.704;7.822;2024-03-08T15:16:08;9.60;99.90
46416;DHT22;32620;51.704;7.822;2024-03-08T15:18:34;9.70;99.90
46416;DHT22;32620;51.704;7.822;2024-03-08T15:21:04;9.70;99.90
46416;DHT22;32620;51.704;7.822;2024-03-08T15:23:36;9.70;99.90
46416;DHT22;32620;51.704;7.822;2024-03-08T15:26:02;9.70;99.90
46416;DHT22;32620;51.704;7.822;2024-03-08T15:28:29;9.80;99.90
46416;DHT22;32620;51.704;7.822;2024-03-08T15:31:03;9.70;99.90
46416;DHT22;32620;51.704;7.822;2024-03-08T15:33:32;9.80;99.90
46416;DHT22;32620;51.704;7.822;2024-03-08T15:35:58;9.80;99.90
46416;DHT22;32620;51.704;7.822;2024-03-08T15:38:26;9.70;99.90
46416;DHT22;32620;51.704;7.822;2024-03-08T15:40:53;9.70;99.90
46416;DHT22;32620;51.704;7.822;2024-03-08T15:43:20;9.60;99.90
46416;DHT22;32620;51.704;7.822;2024-03-08T15:45:46;9.60;1.00
46416;DHT22;32620;51.704;7.822;2024-03-08T15:48:12;9.60;99.90
46416;DHT22;32620;51.704;7.822;2024-03-08T15:50:38;9.50;1.00
46416;DHT22;32620;51.704;7.822;2024-03-08T15:53:04;9.50;1.00
46416;DHT22;32620;51.704;7.822;2024-03-08T15:55:30;9.50;1.00
46416;DHT22;32620;51.704;7.822;2024-03-08T15:57:56;9.60;86.10
46416;DHT22;32620;51.704;7.822;2024-03-08T16:00:25;9.60;1.00